createdAt,value
2019-02-27T00:00:20.371Z,40.20
2019-02-27T00:02:49.050Z,41.01
2019-02-27T00:05:17.673Z,41.05
2019-02-27T00:07:46.301Z,41.25
2019-02-27T00:10:15.026Z,42.21
2019-02-27T00:12:43.639Z,40.92
2019-02-27T00:15:12.324Z,40.36
2019-02-27T00:17:40.933Z,40.92
2019-02-27T00:20:09.663Z,40.79
2019-02-27T00:22:38.338Z,40.16
2019-02-27T00:25:07.021Z,40.01
2019-02-27T00:27:35.748Z,41.34
2019-02-27T00:30:05.841Z,40.81
2019-02-27T00:32:34.539Z,41.11
2019-02-27T00:35:06.152Z,40.88
2019-02-27T00:37:33.471Z,40.07
2019-02-27T00:40:05.362Z,39.32
2019-02-27T00:42:33.786Z,40.98
2019-02-27T00:45:06.812Z,40.60
2019-02-27T00:47:32.911Z,40.65
2019-02-27T00:50:05.614Z,39.84
2019-02-27T00:52:31.859Z,40.01
2019-02-27T00:55:04.246Z,39.98
2019-02-27T00:57:30.920Z,40.70
2019-02-27T00:59:59.494Z,40.06
2019-02-27T01:02:28.088Z,39.82
2019-02-27T01:04:56.762Z,39.72
2019-02-27T01:07:25.750Z,40.33
2019-02-27T01:09:54.350Z,40.19
2019-02-27T01:12:25.262Z,39.42
2019-02-27T01:14:53.497Z,39.40
2019-02-27T01:17:23.850Z,39.64
2019-02-27T01:19:52.457Z,40.13
2019-02-27T01:22:21.065Z,40.18
2019-02-27T01:24:50.193Z,40.47
2019-02-27T01:27:19.327Z,40.41
2019-02-27T01:29:50.945Z,39.83
2019-02-27T01:32:18.249Z,39.72
2019-02-27T01:34:46.826Z,40.77
2019-02-27T01:37:15.566Z,39.96
2019-02-27T01:39:44.762Z,40.27
2019-02-27T01:42:13.314Z,41.26
2019-02-27T01:44:44.029Z,40.78
2019-02-27T01:47:14.210Z,40.82
2019-02-27T01:49:43.896Z,40.77
2019-02-27T01:52:12.474Z,41.02
2019-02-27T01:54:41.046Z,40.32
2019-02-27T01:57:09.714Z,39.98
2019-02-27T01:59:38.326Z,40.66
2019-02-27T02:02:06.927Z,41.04
2019-02-27T02:04:35.674Z,40.93
2019-02-27T02:07:06.599Z,40.68
2019-02-27T02:09:38.899Z,41.29
2019-02-27T02:12:13.417Z,41.16
2019-02-27T02:14:55.240Z,40.84
2019-02-27T02:18:17.299Z,40.44
2019-02-27T02:21:48.332Z,41.49
2019-02-27T02:25:13.009Z,40.93
2019-02-27T02:28:18.899Z,42.08
2019-02-27T02:31:27.535Z,40.91
2019-02-27T02:34:40.136Z,41.75
2019-02-27T02:37:18.140Z,41.30
2019-02-27T02:39:58.210Z,41.31
2019-02-27T02:42:46.664Z,41.94
2019-02-27T02:45:21.619Z,42.24
2019-02-27T02:48:12.707Z,42.38
2019-02-27T02:50:54.978Z,42.20
2019-02-27T02:53:35.195Z,42.33
2019-02-27T02:56:47.368Z,42.86
2019-02-27T02:59:59.885Z,42.62
2019-02-27T03:03:06.283Z,42.44
2019-02-27T03:06:34.746Z,43.09
2019-02-27T03:09:15.637Z,44.56
2019-02-27T03:12:22.949Z,43.88
2019-02-27T03:15:29.584Z,44.13
2019-02-27T03:18:21.651Z,43.36
2019-02-27T03:21:27.861Z,43.57
2019-02-27T03:24:20.403Z,43.69
2019-02-27T03:27:29.573Z,44.07
2019-02-27T03:30:33.673Z,43.92
2019-02-27T03:33:10.573Z,44.25
2019-02-27T03:36:18.746Z,44.21
2019-02-27T03:39:11.275Z,44.29
2019-02-27T03:42:12.198Z,44.19
2019-02-27T03:45:05.093Z,44.41
2019-02-27T03:48:08.559Z,45.51
2019-02-27T03:51:03.269Z,44.92
2019-02-27T03:54:12.415Z,44.85
2019-02-27T03:57:03.051Z,45.02
2019-02-27T04:00:19.194Z,45.55
2019-02-27T04:03:18.769Z,45.48
2019-02-27T04:06:39.689Z,46.22
2019-02-27T04:09:09.714Z,45.55
2019-02-27T04:11:41.423Z,45.40
2019-02-27T04:14:29.099Z,46.32
2019-02-27T04:16:57.691Z,46.13
2019-02-27T04:19:26.503Z,46.03
2019-02-27T04:22:00.520Z,46.36
2019-02-27T04:24:25.586Z,46.42
2019-02-27T04:26:54.425Z,46.17
2019-02-27T04:29:23.026Z,46.45
2019-02-27T04:31:51.605Z,46.77
2019-02-27T04:34:20.297Z,47.05
2019-02-27T04:36:48.871Z,47.13
2019-02-27T04:39:17.458Z,47.10
2019-02-27T04:41:46.045Z,47.18
2019-02-27T04:44:14.658Z,46.95
2019-02-27T04:46:43.269Z,46.80
2019-02-27T04:49:11.851Z,48.57
2019-02-27T04:51:40.445Z,47.48
2019-02-27T04:54:09.116Z,47.86
2019-02-27T04:56:37.718Z,48.38
2019-02-27T04:59:06.289Z,47.61
2019-02-27T05:01:36.679Z,47.59
2019-02-27T05:04:05.351Z,48.40
2019-02-27T05:06:33.947Z,48.24
2019-02-27T05:09:02.530Z,48.21
2019-02-27T05:11:31.110Z,48.35
2019-02-27T05:13:59.681Z,48.31
2019-02-27T05:16:28.268Z,48.19
2019-02-27T05:18:56.867Z,48.35
2019-02-27T05:21:25.437Z,48.65
2019-02-27T05:23:54.050Z,48.49
2019-02-27T05:26:27.043Z,48.40
2019-02-27T05:28:52.943Z,48.78
2019-02-27T05:31:21.572Z,48.46
2019-02-27T05:33:50.353Z,48.97
2019-02-27T05:36:19.486Z,49.10
2019-02-27T05:38:48.163Z,49.07
2019-02-27T05:41:16.877Z,48.63
2019-02-27T05:43:48.542Z,48.89
2019-02-27T05:46:15.767Z,49.00
2019-02-27T05:48:44.481Z,48.56
2019-02-27T05:51:13.059Z,48.81
2019-02-27T05:53:41.709Z,48.97
2019-02-27T05:56:10.305Z,48.87
2019-02-27T05:58:38.892Z,49.34
2019-02-27T06:01:07.482Z,49.37
2019-02-27T06:03:36.043Z,49.00
2019-02-27T06:06:06.701Z,49.24
2019-02-27T06:08:38.003Z,49.18
2019-02-27T06:11:05.703Z,49.77
2019-02-27T06:13:34.292Z,49.35
2019-02-27T06:16:03.846Z,49.80
2019-02-27T06:18:33.236Z,49.65
2019-02-27T06:21:01.819Z,49.88
2019-02-27T06:23:30.401Z,49.81
2019-02-27T06:26:00.148Z,49.99
2019-02-27T06:28:28.810Z,50.38
2019-02-27T06:30:57.419Z,50.31
2019-02-27T06:33:26.044Z,50.30
2019-02-27T06:35:54.687Z,49.91
2019-02-27T06:38:25.338Z,50.13
2019-02-27T06:40:53.601Z,50.11
2019-02-27T06:43:22.252Z,50.34
2019-02-27T06:45:50.913Z,50.03
2019-02-27T06:48:19.523Z,50.00
2019-02-27T06:50:48.265Z,50.12
2019-02-27T06:53:16.878Z,50.66
2019-02-27T06:55:45.489Z,50.49
2019-02-27T06:58:15.431Z,50.13
2019-02-27T07:00:44.071Z,50.96
2019-02-27T07:03:12.675Z,50.75
2019-02-27T07:05:41.663Z,50.42
2019-02-27T07:08:10.288Z,50.97
2019-02-27T07:10:39.018Z,50.03
2019-02-27T07:13:07.726Z,50.23
2019-02-27T07:15:37.343Z,49.56
2019-02-27T07:18:06.701Z,49.13
2019-02-27T07:20:35.416Z,48.78
2019-02-27T07:23:03.986Z,48.71
2019-02-27T07:25:32.884Z,48.73
2019-02-27T07:28:03.444Z,48.60
2019-02-27T07:30:31.777Z,48.65
2019-02-27T07:33:00.424Z,48.42
2019-02-27T07:35:29.360Z,48.05
2019-02-27T07:37:57.896Z,47.94
2019-02-27T07:40:26.588Z,47.95
2019-02-27T07:42:55.193Z,47.84
2019-02-27T07:45:23.910Z,47.58
2019-02-27T07:47:52.670Z,47.20
2019-02-27T07:50:21.600Z,46.87
2019-02-27T07:52:51.946Z,47.32
2019-02-27T07:55:23.004Z,47.39
2019-02-27T07:57:51.033Z,46.94
2019-02-27T08:00:19.752Z,46.61
2019-02-27T08:02:48.334Z,46.16
2019-02-27T08:05:17.179Z,46.13
2019-02-27T08:07:48.694Z,45.65
2019-02-27T08:10:17.667Z,45.37
2019-02-27T08:12:46.348Z,45.56
2019-02-27T08:15:16.348Z,45.13
2019-02-27T08:17:45.008Z,44.59
2019-02-27T08:20:13.826Z,42.34
2019-02-27T08:22:42.519Z,39.86
2019-02-27T08:25:11.922Z,39.86
2019-02-27T08:27:43.057Z,38.66
2019-02-27T08:30:16.476Z,38.66
2019-02-27T08:32:45.171Z,38.93
2019-02-27T08:35:13.845Z,38.32
2019-02-27T08:37:42.488Z,37.65
2019-02-27T08:40:11.405Z,36.75
2019-02-27T08:42:40.620Z,35.72
2019-02-27T08:45:18.954Z,35.94
2019-02-27T08:47:40.858Z,35.79
2019-02-27T08:50:13.891Z,35.23
2019-02-27T08:52:44.417Z,35.14
2019-02-27T08:55:19.875Z,34.96
2019-02-27T08:57:44.115Z,33.38
2019-02-27T09:00:15.264Z,30.58
2019-02-27T09:02:44.053Z,26.81
2019-02-27T09:05:12.904Z,24.04
2019-02-27T09:07:43.073Z,21.94
2019-02-27T09:10:12.649Z,19.79
2019-02-27T09:12:41.431Z,18.14
2019-02-27T09:15:10.508Z,17.20
2019-02-27T09:17:39.187Z,17.81
2019-02-27T09:20:08.934Z,17.64
2019-02-27T09:22:37.683Z,17.61
2019-02-27T09:25:06.425Z,17.08
2019-02-27T09:27:35.328Z,17.25
2019-02-27T09:30:04.495Z,15.05
2019-02-27T09:32:33.144Z,14.22
2019-02-27T09:35:01.868Z,14.21
2019-02-27T09:37:30.752Z,14.18
2019-02-27T09:40:04.514Z,13.16
2019-02-27T09:42:29.797Z,13.02
2019-02-27T09:44:58.544Z,13.21
2019-02-27T09:47:27.228Z,13.38
2019-02-27T09:49:55.909Z,11.98
2019-02-27T09:52:24.567Z,12.52
2019-02-27T09:54:54.808Z,14.04
2019-02-27T09:57:23.603Z,12.57
2019-02-27T09:59:53.693Z,12.17
2019-02-27T10:02:22.954Z,12.21
2019-02-27T10:04:51.591Z,11.73
2019-02-27T10:07:20.402Z,11.20
2019-02-27T10:09:49.112Z,10.45
2019-02-27T10:12:17.842Z,9.87
2019-02-27T10:14:47.935Z,9.56
2019-02-27T10:17:16.916Z,9.27
2019-02-27T10:19:45.565Z,10.67
2019-02-27T10:22:17.687Z,12.11
2019-02-27T10:24:44.573Z,13.05
2019-02-27T10:27:13.204Z,13.45
2019-02-27T10:29:41.814Z,13.65
2019-02-27T10:32:10.482Z,13.54
2019-02-27T10:34:39.152Z,12.40
2019-02-27T10:37:12.855Z,11.66
2019-02-27T10:39:38.404Z,12.66
2019-02-27T10:42:07.154Z,13.39
2019-02-27T10:44:35.845Z,13.10
2019-02-27T10:47:04.529Z,12.29
2019-02-27T10:49:33.242Z,12.44
2019-02-27T10:52:01.905Z,12.18
2019-02-27T10:54:30.557Z,11.91
2019-02-27T10:56:59.376Z,11.19
2019-02-27T10:59:28.066Z,12.78
2019-02-27T11:01:56.995Z,11.50
2019-02-27T11:04:25.647Z,12.22
2019-02-27T11:06:54.308Z,13.37
2019-02-27T11:09:27.777Z,14.32
2019-02-27T11:11:56.380Z,15.09
2019-02-27T11:14:25.127Z,15.35
2019-02-27T11:16:53.813Z,15.67
2019-02-27T11:19:22.476Z,16.24
2019-02-27T11:21:51.136Z,16.70
2019-02-27T11:24:19.741Z,17.46
2019-02-27T11:26:48.361Z,17.76
2019-02-27T11:29:16.978Z,18.12
2019-02-27T11:31:46.155Z,18.54
2019-02-27T11:34:16.087Z,18.26
2019-02-27T11:36:44.860Z,18.15
2019-02-27T11:39:13.561Z,18.12
2019-02-27T11:41:42.288Z,18.28
2019-02-27T11:44:14.038Z,19.02
2019-02-27T11:46:41.486Z,19.30
2019-02-27T11:49:10.235Z,18.95
2019-02-27T11:51:38.901Z,20.00
2019-02-27T11:54:09.059Z,19.74
2019-02-27T11:56:38.077Z,18.60
2019-02-27T11:59:06.901Z,16.84
2019-02-27T12:01:35.613Z,15.46
2019-02-27T12:04:05.660Z,15.01
2019-02-27T12:06:34.377Z,13.50
2019-02-27T12:09:03.073Z,12.85
2019-02-27T12:11:31.846Z,13.50
2019-02-27T12:14:00.548Z,13.88
2019-02-27T12:16:29.328Z,12.26
2019-02-27T12:18:58.046Z,11.95
2019-02-27T12:21:26.903Z,11.58
2019-02-27T12:23:55.710Z,12.01
2019-02-27T12:26:24.500Z,13.79
2019-02-27T12:28:53.934Z,12.55
2019-02-27T12:31:22.707Z,11.88
2019-02-27T12:33:51.356Z,11.98
2019-02-27T12:36:20.389Z,11.83
2019-02-27T12:38:49.040Z,12.25
2019-02-27T12:41:17.714Z,12.04
2019-02-27T12:43:46.343Z,11.81
2019-02-27T12:46:15.098Z,10.99
2019-02-27T12:48:46.046Z,11.28
2019-02-27T12:51:15.668Z,11.52
2019-02-27T12:53:44.356Z,11.57
2019-02-27T12:56:13.092Z,11.22
2019-02-27T12:58:41.900Z,11.37
2019-02-27T13:01:10.695Z,11.68
2019-02-27T13:03:42.234Z,11.15
2019-02-27T13:06:09.726Z,11.42
2019-02-27T13:08:38.385Z,11.22
2019-02-27T13:11:07.966Z,11.62
2019-02-27T13:13:37.379Z,11.54
2019-02-27T13:16:06.092Z,12.45
2019-02-27T13:18:34.696Z,13.67
2019-02-27T13:21:03.358Z,13.54
2019-02-27T13:23:31.981Z,14.32
2019-02-27T13:26:01.145Z,15.44
2019-02-27T13:28:30.263Z,16.09
2019-02-27T13:30:59.116Z,16.62
2019-02-27T13:33:27.834Z,16.27
2019-02-27T13:35:56.727Z,17.03
2019-02-27T13:38:27.146Z,16.56
2019-02-27T13:40:56.718Z,17.01
2019-02-27T13:43:27.128Z,16.70
2019-02-27T13:45:55.906Z,17.01
2019-02-27T13:48:24.516Z,17.04
2019-02-27T13:50:53.233Z,17.39
2019-02-27T13:53:25.734Z,17.16
2019-02-27T13:55:52.290Z,16.70
2019-02-27T13:58:21.225Z,17.22
2019-02-27T14:00:53.618Z,17.09
2019-02-27T14:03:20.440Z,17.16
2019-02-27T14:05:49.124Z,16.79
2019-02-27T14:08:17.751Z,16.34
2019-02-27T14:10:46.482Z,17.71
2019-02-27T14:13:15.097Z,17.20
2019-02-27T14:15:43.750Z,17.11
2019-02-27T14:18:16.120Z,17.58
2019-02-27T14:20:43.916Z,17.59
2019-02-27T14:23:14.586Z,18.00
2019-02-27T14:25:43.459Z,17.85
2019-02-27T14:28:12.271Z,17.60
2019-02-27T14:30:43.491Z,17.56
2019-02-27T14:33:12.169Z,17.79
2019-02-27T14:35:40.998Z,17.80
2019-02-27T14:38:09.626Z,17.67
2019-02-27T14:40:41.212Z,17.66
2019-02-27T14:43:09.086Z,17.50
2019-02-27T14:45:41.053Z,17.76
2019-02-27T14:48:09.284Z,17.30
2019-02-27T14:50:38.223Z,17.46
2019-02-27T14:53:18.517Z,17.71
2019-02-27T14:55:44.495Z,17.61
2019-02-27T14:58:13.274Z,18.18
2019-02-27T15:00:42.349Z,18.28
2019-02-27T15:03:11.588Z,18.71
2019-02-27T15:05:44.755Z,18.46
2019-02-27T15:08:13.565Z,18.34
2019-02-27T15:10:42.627Z,19.15
2019-02-27T15:13:11.234Z,19.33
2019-02-27T15:15:43.172Z,18.62
2019-02-27T15:18:10.285Z,18.33
2019-02-27T15:20:41.097Z,18.15
2019-02-27T15:23:09.530Z,18.62
2019-02-27T15:25:42.240Z,17.94
2019-02-27T15:28:08.686Z,18.08
2019-02-27T15:30:37.402Z,18.36
2019-02-27T15:33:06.043Z,19.35
2019-02-27T15:35:34.833Z,19.51
2019-02-27T15:38:03.737Z,19.49
2019-02-27T15:40:32.439Z,19.77
2019-02-27T15:43:01.299Z,20.46
2019-02-27T15:45:29.991Z,20.23
2019-02-27T15:47:58.628Z,21.04
2019-02-27T15:50:27.467Z,21.76
2019-02-27T15:52:56.257Z,21.98
2019-02-27T15:55:24.949Z,21.62
2019-02-27T15:57:54.209Z,22.12
2019-02-27T16:00:23.079Z,22.16
2019-02-27T16:02:51.874Z,22.26
2019-02-27T16:05:20.657Z,22.51
2019-02-27T16:07:49.861Z,22.21
2019-02-27T16:10:19.959Z,23.13
2019-02-27T16:12:49.047Z,23.30
2019-02-27T16:15:18.212Z,24.24
2019-02-27T16:17:46.978Z,24.42
2019-02-27T16:20:16.864Z,25.17
2019-02-27T16:22:45.601Z,25.36
2019-02-27T16:25:18.299Z,25.91
2019-02-27T16:27:46.454Z,26.58
2019-02-27T16:30:17.658Z,27.86
2019-02-27T16:32:48.645Z,27.92
2019-02-27T16:35:16.834Z,29.10
2019-02-27T16:37:45.918Z,29.29
2019-02-27T16:40:17.991Z,29.24
2019-02-27T16:42:46.177Z,29.88
2019-02-27T16:45:17.039Z,30.00
2019-02-27T16:47:45.790Z,29.59
2019-02-27T16:50:16.588Z,29.83
2019-02-27T16:52:45.500Z,31.29
2019-02-27T16:55:15.348Z,31.83
2019-02-27T16:57:44.007Z,31.89
2019-02-27T17:00:18.261Z,31.33
2019-02-27T17:02:44.604Z,32.40
2019-02-27T17:05:13.560Z,32.01
2019-02-27T17:07:42.249Z,32.56
2019-02-27T17:10:14.990Z,33.52
2019-02-27T17:12:44.131Z,33.71
2019-02-27T17:15:12.827Z,34.24
2019-02-27T17:17:41.786Z,34.26
2019-02-27T17:20:12.862Z,34.65
2019-02-27T17:22:41.627Z,33.88
2019-02-27T17:25:10.843Z,34.58
2019-02-27T17:27:39.488Z,35.09
2019-02-27T17:30:15.743Z,34.31
2019-02-27T17:32:44.335Z,36.21
2019-02-27T17:35:13.127Z,36.27
2019-02-27T17:37:42.251Z,35.89
2019-02-27T17:40:11.053Z,36.40
2019-02-27T17:42:39.675Z,35.88
2019-02-27T17:45:10.098Z,36.70
2019-02-27T17:47:39.378Z,37.09
2019-02-27T17:50:08.390Z,37.05
2019-02-27T17:52:36.990Z,37.46
2019-02-27T17:55:06.796Z,37.46
2019-02-27T17:57:36.291Z,37.77
2019-02-27T18:00:06.471Z,37.77
2019-02-27T18:02:35.107Z,37.03
2019-02-27T18:07:51.761Z,38.05
2019-02-27T18:10:20.373Z,38.07
2019-02-27T18:12:48.995Z,38.55
2019-02-27T18:15:20.456Z,38.55
2019-02-27T18:17:48.303Z,39.82
2019-02-27T18:20:17.101Z,39.54
2019-02-27T18:22:45.988Z,39.90
2019-02-27T18:25:17.986Z,39.84
2019-02-27T18:27:47.908Z,39.92
2019-02-27T18:30:18.872Z,40.01
2019-02-27T18:32:47.759Z,40.02
2019-02-27T18:35:16.844Z,39.93
2019-02-27T18:37:45.440Z,40.01
2019-02-27T18:40:14.284Z,40.18
2019-02-27T18:43:02.162Z,40.00
2019-02-27T18:45:31.414Z,40.02
2019-02-27T18:48:00.078Z,40.37
2019-02-27T18:50:28.906Z,40.69
2019-02-27T18:52:57.588Z,41.29
2019-02-27T18:55:29.543Z,41.20
2019-02-27T18:57:56.524Z,40.82
2019-02-27T19:00:25.346Z,41.30
2019-02-27T19:02:54.453Z,41.69
2019-02-27T19:05:42.331Z,41.12
2019-02-27T19:08:10.976Z,41.62
2019-02-27T19:10:42.464Z,41.63
2019-02-27T19:13:09.921Z,42.13
2019-02-27T19:15:38.845Z,41.80
2019-02-27T19:18:07.688Z,42.42
2019-02-27T19:20:56.172Z,42.30
2019-02-27T19:23:26.131Z,42.78
2019-02-27T19:25:54.990Z,41.56
2019-02-27T19:28:24.841Z,42.50
2019-02-27T19:30:54.062Z,42.83
2019-02-27T19:33:22.646Z,42.42
2019-02-27T19:35:55.970Z,42.00
2019-02-27T19:38:21.888Z,41.72
2019-02-27T19:40:50.557Z,41.33
2019-02-27T19:43:38.390Z,41.29
2019-02-27T19:46:09.867Z,41.98
2019-02-27T19:48:37.327Z,40.77
2019-02-27T19:51:06.067Z,40.73
2019-02-27T19:53:39.358Z,41.22
2019-02-27T19:56:05.064Z,41.16
2019-02-27T19:58:33.664Z,40.95
2019-02-27T20:01:02.279Z,40.14
2019-02-27T20:03:34.881Z,40.04
2019-02-27T20:06:01.195Z,40.14
2019-02-27T20:08:30.192Z,39.60
2019-02-27T20:11:02.396Z,39.39
2019-02-27T20:13:32.222Z,39.22
2019-02-27T20:16:00.796Z,39.71
2019-02-27T20:18:29.663Z,39.21
2019-02-27T20:20:58.688Z,39.15
2019-02-27T20:23:27.306Z,39.03
2019-02-27T20:25:56.200Z,39.30
2019-02-27T20:28:29.021Z,39.70
2019-02-27T20:30:58.035Z,39.62
2019-02-27T20:33:26.876Z,39.94
2019-02-27T20:35:56.685Z,39.41
2019-02-27T20:38:25.585Z,39.00
2019-02-27T20:40:54.853Z,39.21
2019-02-27T20:43:29.166Z,39.38
2019-02-27T20:45:54.324Z,38.68
2019-02-27T20:48:22.995Z,38.57
2019-02-27T20:50:52.278Z,38.90
2019-02-27T20:55:41.583Z,41.26
2019-02-27T20:58:10.243Z,39.89
2019-02-27T21:00:58.360Z,40.29
2019-02-27T21:03:27.942Z,40.14
2019-02-27T21:05:57.404Z,40.04
2019-02-27T21:08:45.240Z,40.07
2019-02-27T21:11:13.852Z,40.10
2019-02-27T21:13:42.762Z,40.77
2019-02-27T21:16:11.508Z,40.43
2019-02-27T21:18:40.133Z,40.06
2019-02-27T21:21:08.839Z,40.22
2019-02-27T21:23:37.487Z,40.04
2019-02-27T21:26:06.219Z,39.87
2019-02-27T21:28:34.805Z,39.77
2019-02-27T21:31:03.666Z,39.81
2019-02-27T21:33:32.343Z,40.16
2019-02-27T21:36:03.451Z,40.65
2019-02-27T21:38:31.290Z,41.18
2019-02-27T21:41:00.067Z,41.25
2019-02-27T21:43:28.724Z,41.53
2019-02-27T21:45:57.313Z,41.29
2019-02-27T21:48:26.860Z,41.38
2019-02-27T21:50:56.684Z,42.06
2019-02-27T21:53:26.146Z,42.07
2019-02-27T21:55:55.723Z,41.44
2019-02-27T21:58:24.644Z,41.11
2019-02-27T22:01:05.263Z,41.26
2019-02-27T22:03:35.205Z,41.17
2019-02-27T22:06:04.238Z,40.36
2019-02-27T22:08:32.952Z,40.39
2019-02-27T22:11:01.879Z,39.99
2019-02-27T22:13:32.341Z,39.96
2019-02-27T22:16:01.219Z,39.77
2019-02-27T22:18:29.822Z,40.01
2019-02-27T22:20:59.713Z,39.54
2019-02-27T22:23:28.826Z,39.31
2019-02-27T22:25:57.441Z,39.16
2019-02-27T22:28:26.138Z,39.19
2019-02-27T22:31:13.990Z,39.11
2019-02-27T22:33:42.590Z,38.65
2019-02-27T22:36:12.781Z,38.52
2019-02-27T22:38:41.598Z,38.41
2019-02-27T22:43:44.739Z,38.34
2019-02-27T22:46:13.610Z,37.99
2019-02-27T22:48:44.105Z,38.04
2019-02-27T22:51:13.468Z,38.36
2019-02-27T22:54:02.150Z,38.05
2019-02-27T22:56:31.379Z,37.93
2019-02-27T22:59:03.010Z,37.98
2019-02-27T23:04:39.517Z,37.82
2019-02-27T23:07:08.429Z,37.75
2019-02-27T23:09:37.511Z,37.55
2019-02-27T23:12:08.545Z,38.48
2019-02-27T23:14:55.778Z,38.72
2019-02-27T23:17:24.479Z,38.41
2019-02-27T23:19:53.109Z,37.75
2019-02-27T23:22:21.869Z,38.05
2019-02-27T23:24:50.481Z,37.48
2019-02-27T23:27:19.102Z,38.61
2019-02-27T23:32:21.759Z,37.46
2019-02-27T23:34:50.410Z,37.12
2019-02-27T23:37:19.084Z,37.07
2019-02-27T23:39:47.792Z,37.29
2019-02-27T23:42:16.476Z,37.29
2019-02-27T23:47:32.842Z,36.73
2019-02-27T23:50:01.492Z,35.96
2019-02-27T23:52:30.096Z,36.00
2019-02-27T23:54:58.728Z,36.00
2019-02-27T23:57:27.339Z,36.03
2019-02-27T23:59:55.965Z,35.66
